sensor_id;sensor_type;location;lat;lon;timestamp;P1;durP1;ratioP1;P2;durP2;ratioP2
23058;SDS011;30585;51.502;7.218;2022-07-21T00:00:59;13.98;;;9.70;;
23058;SDS011;30585;51.502;7.218;2022-07-21T00:03:29;11.40;;;8.40;;
23058;SDS011;30585;51.502;7.218;2022-07-21T00:05:57;12.23;;;9.90;;
23058;SDS011;30585;51.502;7.218;2022-07-21T00:08:24;14.25;;;9.70;;
23058;SDS011;30585;51.502;7.218;2022-07-21T00:10:52;13.50;;;9.70;;
23058;SDS011;30585;51.502;7.218;2022-07-21T00:13:20;12.05;;;10.18;;
23058;SDS011;30585;51.502;7.218;2022-07-21T00:15:48;14.15;;;9.00;;
23058;SDS011;30585;51.502;7.218;2022-07-21T00:18:17;10.85;;;8.60;;
23058;SDS011;30585;51.502;7.218;2022-07-21T00:20:47;13.98;;;9.35;;
23058;SDS011;30585;51.502;7.218;2022-07-21T00:23:15;13.18;;;9.30;;
23058;SDS011;30585;51.502;7.218;2022-07-21T00:25:43;10.68;;;7.97;;
23058;SDS011;30585;51.502;7.218;2022-07-21T00:28:11;12.70;;;9.15;;
23058;SDS011;30585;51.502;7.218;2022-07-21T00:30:39;10.98;;;8.30;;
23058;SDS011;30585;51.502;7.218;2022-07-21T00:33:07;14.05;;;9.10;;
23058;SDS011;30585;51.502;7.218;2022-07-21T00:35:35;13.73;;;9.40;;
23058;SDS011;30585;51.502;7.218;2022-07-21T00:38:04;11.25;;;8.90;;
23058;SDS011;30585;51.502;7.218;2022-07-21T00:40:32;15.65;;;9.40;;
23058;SDS011;30585;51.502;7.218;2022-07-21T00:43:00;12.70;;;8.18;;
23058;SDS011;30585;51.502;7.218;2022-07-21T00:45:29;12.93;;;8.57;;
23058;SDS011;30585;51.502;7.218;2022-07-21T00:47:57;11.30;;;7.85;;
23058;SDS011;30585;51.502;7.218;2022-07-21T00:50:25;12.73;;;8.15;;
23058;SDS011;30585;51.502;7.218;2022-07-21T00:52:53;11.82;;;8.30;;
23058;SDS011;30585;51.502;7.218;2022-07-21T00:55:23;10.98;;;8.23;;
23058;SDS011;30585;51.502;7.218;2022-07-21T00:57:51;10.30;;;7.88;;
23058;SDS011;30585;51.502;7.218;2022-07-21T01:00:20;9.13;;;6.57;;
23058;SDS011;30585;51.502;7.218;2022-07-21T01:02:50;10.50;;;7.10;;
23058;SDS011;30585;51.502;7.218;2022-07-21T01:05:18;8.20;;;7.25;;
23058;SDS011;30585;51.502;7.218;2022-07-21T01:07:47;10.68;;;7.25;;
23058;SDS011;30585;51.502;7.218;2022-07-21T01:10:17;10.15;;;7.55;;
23058;SDS011;30585;51.502;7.218;2022-07-21T01:12:48;11.55;;;7.85;;
23058;SDS011;30585;51.502;7.218;2022-07-21T01:15:17;10.73;;;7.15;;
23058;SDS011;30585;51.502;7.218;2022-07-21T01:17:46;10.20;;;7.73;;
23058;SDS011;30585;51.502;7.218;2022-07-21T01:20:15;10.00;;;7.43;;
23058;SDS011;30585;51.502;7.218;2022-07-21T01:22:46;7.95;;;6.32;;
23058;SDS011;30585;51.502;7.218;2022-07-21T01:25:16;8.30;;;6.78;;
23058;SDS011;30585;51.502;7.218;2022-07-21T01:27:45;10.68;;;6.15;;
23058;SDS011;30585;51.502;7.218;2022-07-21T01:30:14;8.95;;;6.88;;
23058;SDS011;30585;51.502;7.218;2022-07-21T01:32:42;7.90;;;6.30;;
23058;SDS011;30585;51.502;7.218;2022-07-21T01:35:12;9.50;;;7.10;;
23058;SDS011;30585;51.502;7.218;2022-07-21T01:37:42;7.45;;;6.60;;
23058;SDS011;30585;51.502;7.218;2022-07-21T01:40:13;8.23;;;6.57;;
23058;SDS011;30585;51.502;7.218;2022-07-21T01:43:00;12.32;;;7.60;;
23058;SDS011;30585;51.502;7.218;2022-07-21T01:45:33;10.30;;;7.05;;
23058;SDS011;30585;51.502;7.218;2022-07-21T01:48:01;10.20;;;7.22;;
23058;SDS011;30585;51.502;7.218;2022-07-21T01:50:29;10.82;;;8.18;;
23058;SDS011;30585;51.502;7.218;2022-07-21T01:52:57;9.68;;;8.15;;
23058;SDS011;30585;51.502;7.218;2022-07-21T01:55:27;8.70;;;7.38;;
23058;SDS011;30585;51.502;7.218;2022-07-21T01:57:56;12.48;;;7.32;;
23058;SDS011;30585;51.502;7.218;2022-07-21T02:00:24;12.68;;;7.85;;
23058;SDS011;30585;51.502;7.218;2022-07-21T02:02:52;11.43;;;7.70;;
23058;SDS011;30585;51.502;7.218;2022-07-21T02:05:20;10.70;;;7.90;;
23058;SDS011;30585;51.502;7.218;2022-07-21T02:07:49;11.20;;;8.27;;
23058;SDS011;30585;51.502;7.218;2022-07-21T02:10:17;12.15;;;8.07;;
23058;SDS011;30585;51.502;7.218;2022-07-21T02:12:46;9.70;;;8.18;;
23058;SDS011;30585;51.502;7.218;2022-07-21T02:15:14;11.73;;;8.55;;
23058;SDS011;30585;51.502;7.218;2022-07-21T02:17:42;13.02;;;8.20;;
23058;SDS011;30585;51.502;7.218;2022-07-21T02:20:10;12.40;;;8.23;;
23058;SDS011;30585;51.502;7.218;2022-07-21T02:22:38;10.95;;;8.30;;
23058;SDS011;30585;51.502;7.218;2022-07-21T02:25:06;12.38;;;8.68;;
23058;SDS011;30585;51.502;7.218;2022-07-21T02:27:35;11.50;;;9.30;;
23058;SDS011;30585;51.502;7.218;2022-07-21T02:30:05;9.98;;;7.28;;
23058;SDS011;30585;51.502;7.218;2022-07-21T02:32:33;12.10;;;7.57;;
23058;SDS011;30585;51.502;7.218;2022-07-21T02:35:01;8.02;;;6.63;;
23058;SDS011;30585;51.502;7.218;2022-07-21T02:37:29;9.70;;;6.93;;
23058;SDS011;30585;51.502;7.218;2022-07-21T02:39:57;9.52;;;5.60;;
23058;SDS011;30585;51.502;7.218;2022-07-21T02:42:25;6.28;;;4.93;;
23058;SDS011;30585;51.502;7.218;2022-07-21T02:44:53;9.95;;;5.85;;
23058;SDS011;30585;51.502;7.218;2022-07-21T02:47:22;7.47;;;5.40;;
23058;SDS011;30585;51.502;7.218;2022-07-21T02:49:50;5.70;;;5.10;;
23058;SDS011;30585;51.502;7.218;2022-07-21T02:52:18;9.27;;;5.03;;
23058;SDS011;30585;51.502;7.218;2022-07-21T02:54:47;10.18;;;5.20;;
23058;SDS011;30585;51.502;7.218;2022-07-21T02:57:15;5.93;;;4.65;;
23058;SDS011;30585;51.502;7.218;2022-07-21T02:59:42;5.63;;;4.60;;
23058;SDS011;30585;51.502;7.218;2022-07-21T03:02:10;7.65;;;4.55;;
23058;SDS011;30585;51.502;7.218;2022-07-21T03:04:40;8.50;;;4.82;;
23058;SDS011;30585;51.502;7.218;2022-07-21T03:07:07;7.28;;;5.40;;
23058;SDS011;30585;51.502;7.218;2022-07-21T03:09:35;14.68;;;4.80;;
23058;SDS011;30585;51.502;7.218;2022-07-21T03:12:03;5.97;;;4.90;;
23058;SDS011;30585;51.502;7.218;2022-07-21T03:14:31;6.82;;;4.95;;
23058;SDS011;30585;51.502;7.218;2022-07-21T03:16:59;7.32;;;5.30;;
23058;SDS011;30585;51.502;7.218;2022-07-21T03:19:28;7.03;;;5.13;;
23058;SDS011;30585;51.502;7.218;2022-07-21T03:21:58;7.82;;;4.97;;
23058;SDS011;30585;51.502;7.218;2022-07-21T03:24:25;6.95;;;5.40;;
23058;SDS011;30585;51.502;7.218;2022-07-21T03:26:55;6.00;;;5.00;;
23058;SDS011;30585;51.502;7.218;2022-07-21T03:29:30;5.97;;;5.20;;
23058;SDS011;30585;51.502;7.218;2022-07-21T03:31:58;7.28;;;5.05;;
23058;SDS011;30585;51.502;7.218;2022-07-21T03:34:26;6.22;;;5.18;;
23058;SDS011;30585;51.502;7.218;2022-07-21T03:36:54;6.53;;;5.30;;
23058;SDS011;30585;51.502;7.218;2022-07-21T03:39:23;6.63;;;5.40;;
23058;SDS011;30585;51.502;7.218;2022-07-21T03:41:51;8.13;;;5.15;;
23058;SDS011;30585;51.502;7.218;2022-07-21T03:44:19;8.20;;;5.57;;
23058;SDS011;30585;51.502;7.218;2022-07-21T03:46:47;6.65;;;5.60;;
23058;SDS011;30585;51.502;7.218;2022-07-21T03:49:15;6.63;;;5.28;;
23058;SDS011;30585;51.502;7.218;2022-07-21T03:51:44;7.50;;;5.43;;
23058;SDS011;30585;51.502;7.218;2022-07-21T03:54:12;8.05;;;6.88;;
23058;SDS011;30585;51.502;7.218;2022-07-21T03:56:41;8.65;;;6.25;;
23058;SDS011;30585;51.502;7.218;2022-07-21T03:59:09;8.45;;;6.70;;
23058;SDS011;30585;51.502;7.218;2022-07-21T04:01:37;6.95;;;5.70;;
23058;SDS011;30585;51.502;7.218;2022-07-21T04:04:05;8.63;;;6.63;;
23058;SDS011;30585;51.502;7.218;2022-07-21T04:06:34;12.48;;;6.60;;
23058;SDS011;30585;51.502;7.218;2022-07-21T04:09:02;8.40;;;6.32;;
23058;SDS011;30585;51.502;7.218;2022-07-21T04:11:31;7.43;;;6.15;;
23058;SDS011;30585;51.502;7.218;2022-07-21T04:14:00;7.75;;;6.13;;
23058;SDS011;30585;51.502;7.218;2022-07-21T04:16:28;8.63;;;6.38;;
23058;SDS011;30585;51.502;7.218;2022-07-21T04:18:56;11.10;;;6.75;;
23058;SDS011;30585;51.502;7.218;2022-07-21T04:21:24;8.00;;;6.07;;
23058;SDS011;30585;51.502;7.218;2022-07-21T04:23:53;8.25;;;5.65;;
23058;SDS011;30585;51.502;7.218;2022-07-21T04:26:21;8.77;;;6.45;;
23058;SDS011;30585;51.502;7.218;2022-07-21T04:28:49;6.90;;;5.47;;
23058;SDS011;30585;51.502;7.218;2022-07-21T04:31:19;7.93;;;5.90;;
23058;SDS011;30585;51.502;7.218;2022-07-21T04:33:47;9.73;;;6.13;;
23058;SDS011;30585;51.502;7.218;2022-07-21T04:36:15;10.18;;;5.72;;
23058;SDS011;30585;51.502;7.218;2022-07-21T04:38:43;10.68;;;7.15;;
23058;SDS011;30585;51.502;7.218;2022-07-21T04:41:11;12.07;;;6.75;;
23058;SDS011;30585;51.502;7.218;2022-07-21T04:43:39;9.35;;;6.80;;
23058;SDS011;30585;51.502;7.218;2022-07-21T04:46:07;9.10;;;6.38;;
23058;SDS011;30585;51.502;7.218;2022-07-21T04:48:42;8.90;;;6.65;;
23058;SDS011;30585;51.502;7.218;2022-07-21T04:51:10;7.60;;;6.55;;
23058;SDS011;30585;51.502;7.218;2022-07-21T04:53:38;11.02;;;7.00;;
23058;SDS011;30585;51.502;7.218;2022-07-21T04:56:06;9.93;;;7.88;;
23058;SDS011;30585;51.502;7.218;2022-07-21T04:58:34;8.93;;;7.45;;
23058;SDS011;30585;51.502;7.218;2022-07-21T05:01:02;10.95;;;8.10;;
23058;SDS011;30585;51.502;7.218;2022-07-21T05:03:30;12.68;;;9.35;;
23058;SDS011;30585;51.502;7.218;2022-07-21T05:06:00;10.45;;;8.20;;
23058;SDS011;30585;51.502;7.218;2022-07-21T05:08:28;11.55;;;8.38;;
23058;SDS011;30585;51.502;7.218;2022-07-21T05:10:55;10.95;;;9.00;;
23058;SDS011;30585;51.502;7.218;2022-07-21T05:13:23;12.52;;;8.45;;
23058;SDS011;30585;51.502;7.218;2022-07-21T05:15:51;14.13;;;9.98;;
23058;SDS011;30585;51.502;7.218;2022-07-21T05:18:19;13.25;;;10.05;;
23058;SDS011;30585;51.502;7.218;2022-07-21T05:20:47;12.57;;;9.88;;
23058;SDS011;30585;51.502;7.218;2022-07-21T05:23:16;14.45;;;11.05;;
23058;SDS011;30585;51.502;7.218;2022-07-21T05:25:44;14.05;;;10.80;;
23058;SDS011;30585;51.502;7.218;2022-07-21T05:28:12;12.57;;;9.95;;
23058;SDS011;30585;51.502;7.218;2022-07-21T05:30:40;12.90;;;10.57;;
23058;SDS011;30585;51.502;7.218;2022-07-21T05:33:08;14.52;;;10.73;;
23058;SDS011;30585;51.502;7.218;2022-07-21T05:35:37;16.38;;;12.25;;
23058;SDS011;30585;51.502;7.218;2022-07-21T05:38:05;14.18;;;11.30;;
23058;SDS011;30585;51.502;7.218;2022-07-21T05:40:34;16.02;;;12.23;;
23058;SDS011;30585;51.502;7.218;2022-07-21T05:43:02;14.43;;;12.05;;
23058;SDS011;30585;51.502;7.218;2022-07-21T05:45:30;16.85;;;11.68;;
23058;SDS011;30585;51.502;7.218;2022-07-21T05:47:57;16.42;;;12.13;;
23058;SDS011;30585;51.502;7.218;2022-07-21T05:50:25;16.05;;;12.30;;
23058;SDS011;30585;51.502;7.218;2022-07-21T05:52:53;16.30;;;11.85;;
23058;SDS011;30585;51.502;7.218;2022-07-21T05:55:21;16.23;;;12.85;;
23058;SDS011;30585;51.502;7.218;2022-07-21T05:57:51;16.00;;;12.20;;
23058;SDS011;30585;51.502;7.218;2022-07-21T06:00:19;14.80;;;11.02;;
23058;SDS011;30585;51.502;7.218;2022-07-21T06:02:46;15.80;;;11.88;;
23058;SDS011;30585;51.502;7.218;2022-07-21T06:05:16;14.30;;;10.77;;
23058;SDS011;30585;51.502;7.218;2022-07-21T06:07:44;16.70;;;11.35;;
23058;SDS011;30585;51.502;7.218;2022-07-21T06:10:12;16.15;;;13.18;;
23058;SDS011;30585;51.502;7.218;2022-07-21T06:12:43;15.23;;;11.43;;
23058;SDS011;30585;51.502;7.218;2022-07-21T06:15:13;14.85;;;12.02;;
23058;SDS011;30585;51.502;7.218;2022-07-21T06:17:41;17.58;;;12.13;;
23058;SDS011;30585;51.502;7.218;2022-07-21T06:20:10;13.73;;;11.55;;
23058;SDS011;30585;51.502;7.218;2022-07-21T06:22:39;14.15;;;11.13;;
23058;SDS011;30585;51.502;7.218;2022-07-21T06:25:07;14.55;;;11.40;;
23058;SDS011;30585;51.502;7.218;2022-07-21T06:27:35;13.48;;;11.60;;
23058;SDS011;30585;51.502;7.218;2022-07-21T06:30:04;14.55;;;12.25;;
23058;SDS011;30585;51.502;7.218;2022-07-21T06:32:35;17.63;;;13.43;;
23058;SDS011;30585;51.502;7.218;2022-07-21T06:35:03;14.98;;;11.45;;
23058;SDS011;30585;51.502;7.218;2022-07-21T06:37:32;17.52;;;12.95;;
23058;SDS011;30585;51.502;7.218;2022-07-21T06:40:00;17.83;;;11.98;;
23058;SDS011;30585;51.502;7.218;2022-07-21T06:42:27;16.05;;;12.30;;
23058;SDS011;30585;51.502;7.218;2022-07-21T06:44:55;15.07;;;12.05;;
23058;SDS011;30585;51.502;7.218;2022-07-21T06:47:23;15.38;;;13.77;;
23058;SDS011;30585;51.502;7.218;2022-07-21T06:49:53;13.80;;;12.25;;
23058;SDS011;30585;51.502;7.218;2022-07-21T06:52:25;16.67;;;11.75;;
23058;SDS011;30585;51.502;7.218;2022-07-21T06:54:53;13.13;;;10.65;;
23058;SDS011;30585;51.502;7.218;2022-07-21T06:57:21;11.68;;;9.20;;
23058;SDS011;30585;51.502;7.218;2022-07-21T06:59:49;13.18;;;10.23;;
23058;SDS011;30585;51.502;7.218;2022-07-21T07:02:17;11.07;;;9.30;;
23058;SDS011;30585;51.502;7.218;2022-07-21T07:04:46;11.60;;;8.93;;
23058;SDS011;30585;51.502;7.218;2022-07-21T07:07:16;10.48;;;8.35;;
23058;SDS011;30585;51.502;7.218;2022-07-21T07:09:44;9.43;;;8.48;;
23058;SDS011;30585;51.502;7.218;2022-07-21T07:12:12;11.73;;;8.80;;
23058;SDS011;30585;51.502;7.218;2022-07-21T07:14:59;11.52;;;8.52;;
23058;SDS011;30585;51.502;7.218;2022-07-21T07:17:27;12.23;;;7.50;;
23058;SDS011;30585;51.502;7.218;2022-07-21T07:19:55;11.88;;;8.32;;
23058;SDS011;30585;51.502;7.218;2022-07-21T07:22:24;14.70;;;8.73;;
23058;SDS011;30585;51.502;7.218;2022-07-21T07:24:52;11.13;;;8.38;;
23058;SDS011;30585;51.502;7.218;2022-07-21T07:27:20;10.45;;;8.00;;
23058;SDS011;30585;51.502;7.218;2022-07-21T07:29:49;9.02;;;8.13;;
23058;SDS011;30585;51.502;7.218;2022-07-21T07:32:17;9.30;;;7.40;;
23058;SDS011;30585;51.502;7.218;2022-07-21T07:34:45;8.65;;;7.75;;
23058;SDS011;30585;51.502;7.218;2022-07-21T07:37:13;9.18;;;7.35;;
23058;SDS011;30585;51.502;7.218;2022-07-21T07:39:42;9.05;;;7.63;;
23058;SDS011;30585;51.502;7.218;2022-07-21T07:42:10;8.23;;;7.45;;
23058;SDS011;30585;51.502;7.218;2022-07-21T07:44:38;8.18;;;6.75;;
23058;SDS011;30585;51.502;7.218;2022-07-21T07:47:06;9.52;;;6.47;;
23058;SDS011;30585;51.502;7.218;2022-07-21T07:49:34;10.90;;;6.22;;
23058;SDS011;30585;51.502;7.218;2022-07-21T07:52:02;8.10;;;6.63;;
23058;SDS011;30585;51.502;7.218;2022-07-21T07:54:32;7.95;;;5.32;;
23058;SDS011;30585;51.502;7.218;2022-07-21T07:57:01;7.75;;;5.47;;
23058;SDS011;30585;51.502;7.218;2022-07-21T07:59:29;7.10;;;5.50;;
23058;SDS011;30585;51.502;7.218;2022-07-21T08:01:57;7.78;;;4.55;;
23058;SDS011;30585;51.502;7.218;2022-07-21T08:04:25;6.43;;;4.53;;
23058;SDS011;30585;51.502;7.218;2022-07-21T08:06:53;5.82;;;5.05;;
23058;SDS011;30585;51.502;7.218;2022-07-21T08:09:21;8.35;;;5.15;;
23058;SDS011;30585;51.502;7.218;2022-07-21T08:11:49;6.25;;;4.40;;
23058;SDS011;30585;51.502;7.218;2022-07-21T08:14:19;5.70;;;5.05;;
23058;SDS011;30585;51.502;7.218;2022-07-21T08:16:47;9.50;;;6.15;;
23058;SDS011;30585;51.502;7.218;2022-07-21T08:19:16;8.70;;;6.20;;
23058;SDS011;30585;51.502;7.218;2022-07-21T08:21:44;6.53;;;5.80;;
23058;SDS011;30585;51.502;7.218;2022-07-21T08:24:31;7.28;;;5.70;;
23058;SDS011;30585;51.502;7.218;2022-07-21T08:26:59;6.63;;;5.90;;
23058;SDS011;30585;51.502;7.218;2022-07-21T08:29:29;6.70;;;6.00;;
23058;SDS011;30585;51.502;7.218;2022-07-21T08:31:57;6.93;;;5.57;;
23058;SDS011;30585;51.502;7.218;2022-07-21T08:34:25;7.72;;;6.38;;
23058;SDS011;30585;51.502;7.218;2022-07-21T08:36:53;6.32;;;5.28;;
23058;SDS011;30585;51.502;7.218;2022-07-21T08:39:21;5.95;;;5.43;;
23058;SDS011;30585;51.502;7.218;2022-07-21T08:41:50;6.15;;;4.70;;
23058;SDS011;30585;51.502;7.218;2022-07-21T08:44:19;7.32;;;5.30;;
23058;SDS011;30585;51.502;7.218;2022-07-21T08:46:50;6.80;;;4.93;;
23058;SDS011;30585;51.502;7.218;2022-07-21T08:49:19;4.63;;;4.00;;
23058;SDS011;30585;51.502;7.218;2022-07-21T08:51:48;5.85;;;4.40;;
23058;SDS011;30585;51.502;7.218;2022-07-21T08:54:17;5.40;;;4.20;;
23058;SDS011;30585;51.502;7.218;2022-07-21T08:56:45;6.57;;;3.78;;
23058;SDS011;30585;51.502;7.218;2022-07-21T08:59:13;6.57;;;4.28;;
23058;SDS011;30585;51.502;7.218;2022-07-21T09:01:42;4.97;;;4.50;;
23058;SDS011;30585;51.502;7.218;2022-07-21T09:04:22;5.07;;;3.80;;
23058;SDS011;30585;51.502;7.218;2022-07-21T09:06:52;6.20;;;3.85;;
23058;SDS011;30585;51.502;7.218;2022-07-21T09:09:22;5.22;;;3.90;;
23058;SDS011;30585;51.502;7.218;2022-07-21T09:11:51;6.03;;;4.32;;
23058;SDS011;30585;51.502;7.218;2022-07-21T09:14:20;7.25;;;4.30;;
23058;SDS011;30585;51.502;7.218;2022-07-21T09:16:50;5.40;;;3.97;;
23058;SDS011;30585;51.502;7.218;2022-07-21T09:19:20;6.68;;;4.25;;
23058;SDS011;30585;51.502;7.218;2022-07-21T09:21:52;5.13;;;4.03;;
23058;SDS011;30585;51.502;7.218;2022-07-21T09:24:21;4.63;;;4.03;;
23058;SDS011;30585;51.502;7.218;2022-07-21T09:26:59;10.50;;;4.28;;
23058;SDS011;30585;51.502;7.218;2022-07-21T09:29:33;5.97;;;4.00;;
23058;SDS011;30585;51.502;7.218;2022-07-21T09:32:16;4.75;;;3.75;;
23058;SDS011;30585;51.502;7.218;2022-07-21T09:34:54;6.57;;;3.70;;
23058;SDS011;30585;51.502;7.218;2022-07-21T09:37:32;5.75;;;3.65;;
23058;SDS011;30585;51.502;7.218;2022-07-21T09:40:02;4.22;;;3.40;;
23058;SDS011;30585;51.502;7.218;2022-07-21T09:42:34;4.15;;;3.75;;
23058;SDS011;30585;51.502;7.218;2022-07-21T09:45:03;6.53;;;3.53;;
23058;SDS011;30585;51.502;7.218;2022-07-21T09:47:34;4.50;;;3.60;;
23058;SDS011;30585;51.502;7.218;2022-07-21T09:50:06;4.53;;;3.60;;
23058;SDS011;30585;51.502;7.218;2022-07-21T09:52:55;4.75;;;3.42;;
23058;SDS011;30585;51.502;7.218;2022-07-21T09:55:24;8.13;;;3.97;;
23058;SDS011;30585;51.502;7.218;2022-07-21T09:57:52;5.93;;;4.05;;
23058;SDS011;30585;51.502;7.218;2022-07-21T10:00:24;5.32;;;4.03;;
23058;SDS011;30585;51.502;7.218;2022-07-21T10:02:52;5.20;;;4.00;;
23058;SDS011;30585;51.502;7.218;2022-07-21T10:05:22;5.13;;;4.20;;
23058;SDS011;30585;51.502;7.218;2022-07-21T10:07:58;6.80;;;4.20;;
23058;SDS011;30585;51.502;7.218;2022-07-21T10:10:32;4.72;;;4.07;;
23058;SDS011;30585;51.502;7.218;2022-07-21T10:13:20;5.28;;;4.45;;
23058;SDS011;30585;51.502;7.218;2022-07-21T10:15:48;7.20;;;4.63;;
23058;SDS011;30585;51.502;7.218;2022-07-21T10:18:17;5.15;;;4.40;;
23058;SDS011;30585;51.502;7.218;2022-07-21T10:21:08;5.90;;;4.65;;
23058;SDS011;30585;51.502;7.218;2022-07-21T10:23:43;6.93;;;4.50;;
23058;SDS011;30585;51.502;7.218;2022-07-21T10:26:12;5.70;;;4.80;;
23058;SDS011;30585;51.502;7.218;2022-07-21T10:28:40;8.23;;;4.90;;
23058;SDS011;30585;51.502;7.218;2022-07-21T10:31:14;6.47;;;5.07;;
23058;SDS011;30585;51.502;7.218;2022-07-21T10:33:54;5.43;;;3.95;;
23058;SDS011;30585;51.502;7.218;2022-07-21T10:36:45;7.10;;;4.70;;
23058;SDS011;30585;51.502;7.218;2022-07-21T10:39:25;6.63;;;4.57;;
23058;SDS011;30585;51.502;7.218;2022-07-21T10:41:55;6.15;;;4.82;;
23058;SDS011;30585;51.502;7.218;2022-07-21T10:44:38;6.18;;;5.40;;
23058;SDS011;30585;51.502;7.218;2022-07-21T10:47:08;5.25;;;4.75;;
23058;SDS011;30585;51.502;7.218;2022-07-21T10:49:44;6.25;;;5.05;;
23058;SDS011;30585;51.502;7.218;2022-07-21T10:55:21;5.40;;;4.88;;
23058;SDS011;30585;51.502;7.218;2022-07-21T10:58:09;9.10;;;5.05;;
23058;SDS011;30585;51.502;7.218;2022-07-21T11:00:45;5.97;;;4.50;;
23058;SDS011;30585;51.502;7.218;2022-07-21T11:06:15;7.90;;;5.03;;
23058;SDS011;30585;51.502;7.218;2022-07-21T11:09:05;5.22;;;4.55;;
23058;SDS011;30585;51.502;7.218;2022-07-21T11:11:40;8.07;;;5.35;;
23058;SDS011;30585;51.502;7.218;2022-07-21T11:14:35;7.22;;;5.65;;
23058;SDS011;30585;51.502;7.218;2022-07-21T11:17:04;10.05;;;6.43;;
23058;SDS011;30585;51.502;7.218;2022-07-21T11:19:33;7.18;;;5.43;;
23058;SDS011;30585;51.502;7.218;2022-07-21T11:22:05;6.93;;;6.03;;
23058;SDS011;30585;51.502;7.218;2022-07-21T11:24:36;8.07;;;5.95;;
23058;SDS011;30585;51.502;7.218;2022-07-21T11:27:07;8.52;;;6.35;;
23058;SDS011;30585;51.502;7.218;2022-07-21T11:29:37;8.90;;;6.15;;
23058;SDS011;30585;51.502;7.218;2022-07-21T11:32:08;8.05;;;6.57;;
23058;SDS011;30585;51.502;7.218;2022-07-21T11:34:40;9.60;;;6.65;;
23058;SDS011;30585;51.502;7.218;2022-07-21T11:37:11;8.25;;;7.00;;
23058;SDS011;30585;51.502;7.218;2022-07-21T11:40:02;11.15;;;7.55;;
23058;SDS011;30585;51.502;7.218;2022-07-21T11:42:35;11.85;;;7.75;;
23058;SDS011;30585;51.502;7.218;2022-07-21T11:45:04;11.10;;;7.18;;
23058;SDS011;30585;51.502;7.218;2022-07-21T11:47:34;12.13;;;7.40;;
23058;SDS011;30585;51.502;7.218;2022-07-21T11:50:03;8.57;;;6.47;;
23058;SDS011;30585;51.502;7.218;2022-07-21T11:52:34;11.30;;;7.63;;
23058;SDS011;30585;51.502;7.218;2022-07-21T11:55:04;8.23;;;6.30;;
23058;SDS011;30585;51.502;7.218;2022-07-21T11:57:34;10.40;;;7.10;;
23058;SDS011;30585;51.502;7.218;2022-07-21T12:00:03;9.40;;;6.80;;
23058;SDS011;30585;51.502;7.218;2022-07-21T12:02:34;12.93;;;8.30;;
23058;SDS011;30585;51.502;7.218;2022-07-21T12:05:04;14.40;;;7.78;;
23058;SDS011;30585;51.502;7.218;2022-07-21T12:07:35;11.40;;;6.95;;
23058;SDS011;30585;51.502;7.218;2022-07-21T12:10:06;9.73;;;7.03;;
23058;SDS011;30585;51.502;7.218;2022-07-21T12:12:37;10.57;;;7.45;;
23058;SDS011;30585;51.502;7.218;2022-07-21T12:15:11;7.82;;;6.55;;
23058;SDS011;30585;51.502;7.218;2022-07-21T12:17:42;7.07;;;5.82;;
23058;SDS011;30585;51.502;7.218;2022-07-21T12:20:12;7.00;;;5.38;;
23058;SDS011;30585;51.502;7.218;2022-07-21T12:22:43;7.32;;;5.40;;
23058;SDS011;30585;51.502;7.218;2022-07-21T12:25:13;6.32;;;5.13;;
23058;SDS011;30585;51.502;7.218;2022-07-21T12:27:45;5.93;;;4.93;;
23058;SDS011;30585;51.502;7.218;2022-07-21T12:30:30;9.05;;;5.43;;
23058;SDS011;30585;51.502;7.218;2022-07-21T12:33:01;5.88;;;4.68;;
23058;SDS011;30585;51.502;7.218;2022-07-21T12:35:31;5.97;;;5.15;;
23058;SDS011;30585;51.502;7.218;2022-07-21T12:38:01;6.10;;;5.50;;
23058;SDS011;30585;51.502;7.218;2022-07-21T12:40:34;6.20;;;4.72;;
23058;SDS011;30585;51.502;7.218;2022-07-21T12:43:13;6.97;;;4.97;;
23058;SDS011;30585;51.502;7.218;2022-07-21T12:45:43;6.32;;;5.00;;
23058;SDS011;30585;51.502;7.218;2022-07-21T12:48:13;8.38;;;5.10;;
23058;SDS011;30585;51.502;7.218;2022-07-21T12:50:56;7.15;;;5.13;;
23058;SDS011;30585;51.502;7.218;2022-07-21T12:53:28;8.70;;;5.07;;
23058;SDS011;30585;51.502;7.218;2022-07-21T12:55:57;7.03;;;5.20;;
23058;SDS011;30585;51.502;7.218;2022-07-21T12:58:27;11.20;;;4.78;;
23058;SDS011;30585;51.502;7.218;2022-07-21T13:00:55;5.28;;;4.72;;
23058;SDS011;30585;51.502;7.218;2022-07-21T13:03:23;8.35;;;4.65;;
23058;SDS011;30585;51.502;7.218;2022-07-21T13:05:56;5.32;;;4.60;;
23058;SDS011;30585;51.502;7.218;2022-07-21T13:08:25;5.60;;;4.63;;
23058;SDS011;30585;51.502;7.218;2022-07-21T13:10:53;5.97;;;4.50;;
23058;SDS011;30585;51.502;7.218;2022-07-21T13:13:21;5.43;;;4.30;;
23058;SDS011;30585;51.502;7.218;2022-07-21T13:15:51;6.38;;;4.55;;
23058;SDS011;30585;51.502;7.218;2022-07-21T13:18:19;5.35;;;4.07;;
23058;SDS011;30585;51.502;7.218;2022-07-21T13:20:48;6.70;;;4.65;;
23058;SDS011;30585;51.502;7.218;2022-07-21T13:23:16;4.45;;;4.05;;
23058;SDS011;30585;51.502;7.218;2022-07-21T13:25:44;5.85;;;3.88;;
23058;SDS011;30585;51.502;7.218;2022-07-21T13:28:12;5.30;;;4.03;;
23058;SDS011;30585;51.502;7.218;2022-07-21T13:30:40;5.38;;;4.10;;
23058;SDS011;30585;51.502;7.218;2022-07-21T13:33:09;7.97;;;3.63;;
23058;SDS011;30585;51.502;7.218;2022-07-21T13:35:37;4.00;;;3.38;;
23058;SDS011;30585;51.502;7.218;2022-07-21T13:38:05;4.88;;;3.83;;
23058;SDS011;30585;51.502;7.218;2022-07-21T13:40:33;5.10;;;3.63;;
23058;SDS011;30585;51.502;7.218;2022-07-21T13:43:21;4.20;;;3.80;;
23058;SDS011;30585;51.502;7.218;2022-07-21T13:46:06;4.28;;;3.88;;
23058;SDS011;30585;51.502;7.218;2022-07-21T13:48:35;4.95;;;3.85;;
23058;SDS011;30585;51.502;7.218;2022-07-21T13:51:10;8.95;;;3.97;;
23058;SDS011;30585;51.502;7.218;2022-07-21T13:53:38;5.57;;;3.85;;
23058;SDS011;30585;51.502;7.218;2022-07-21T13:56:07;5.55;;;4.28;;
23058;SDS011;30585;51.502;7.218;2022-07-21T13:58:35;4.75;;;3.80;;
23058;SDS011;30585;51.502;7.218;2022-07-21T14:01:03;7.07;;;4.65;;
23058;SDS011;30585;51.502;7.218;2022-07-21T14:03:32;6.03;;;4.78;;
23058;SDS011;30585;51.502;7.218;2022-07-21T14:06:02;5.75;;;5.05;;
23058;SDS011;30585;51.502;7.218;2022-07-21T14:08:30;5.60;;;4.75;;
23058;SDS011;30585;51.502;7.218;2022-07-21T14:10:58;6.25;;;5.50;;
23058;SDS011;30585;51.502;7.218;2022-07-21T14:13:26;6.97;;;5.28;;
23058;SDS011;30585;51.502;7.218;2022-07-21T14:15:54;7.00;;;5.30;;
23058;SDS011;30585;51.502;7.218;2022-07-21T14:18:23;6.50;;;4.93;;
23058;SDS011;30585;51.502;7.218;2022-07-21T14:20:52;5.07;;;4.35;;
23058;SDS011;30585;51.502;7.218;2022-07-21T14:23:21;6.88;;;5.13;;
23058;SDS011;30585;51.502;7.218;2022-07-21T14:25:50;7.05;;;5.00;;
23058;SDS011;30585;51.502;7.218;2022-07-21T14:28:20;6.40;;;4.90;;
23058;SDS011;30585;51.502;7.218;2022-07-21T14:30:48;5.28;;;4.72;;
23058;SDS011;30585;51.502;7.218;2022-07-21T14:33:23;6.47;;;4.65;;
23058;SDS011;30585;51.502;7.218;2022-07-21T14:35:50;11.50;;;5.82;;
23058;SDS011;30585;51.502;7.218;2022-07-21T14:38:18;7.03;;;5.95;;
23058;SDS011;30585;51.502;7.218;2022-07-21T14:40:47;7.28;;;5.97;;
23058;SDS011;30585;51.502;7.218;2022-07-21T14:43:15;6.18;;;5.10;;
23058;SDS011;30585;51.502;7.218;2022-07-21T14:45:43;9.57;;;5.20;;
23058;SDS011;30585;51.502;7.218;2022-07-21T14:48:11;5.88;;;5.20;;
23058;SDS011;30585;51.502;7.218;2022-07-21T14:50:39;6.07;;;4.68;;
23058;SDS011;30585;51.502;7.218;2022-07-21T14:53:07;6.88;;;4.63;;
23058;SDS011;30585;51.502;7.218;2022-07-21T14:55:36;4.72;;;4.00;;
23058;SDS011;30585;51.502;7.218;2022-07-21T14:58:11;4.63;;;4.13;;
23058;SDS011;30585;51.502;7.218;2022-07-21T15:00:39;4.95;;;3.45;;
23058;SDS011;30585;51.502;7.218;2022-07-21T15:03:09;3.40;;;3.10;;